US-0254 weather

Yuma Auxiliary AAF #2
Arizona, United States

Public forecast

Using degrees Fahrenheit for public forecast. Weather courtesy of forecast.io.

METAR (pilot weather report)

Closest report is Yuma MCAS/Yuma International Airport, 8.0 nm (14.9 km) NW. Retrieved 2019/09/16 06:57 UTC (16 minutes ago):

KNYL 160657Z AUTO 26004KT 10SM CLR 30/22 A2979 RMK AO2 SLP084 T03000217 403890289

TAF (pilot weather forecast)

Forecast is more than 12 hours old.

Closest forecast is Yuma MCAS/Yuma International Airport, 8.0 nm (14.9 km) NW. Retrieved 2014/04/27 15:15 UTC (5 years ago):

TAF TAF COR KNYL 271500Z 2715/2815 VRB06KT 9999 FEW250 QNH2989INS BECMG 2716/2718 26007KT QNH2978INS BECMG 2806/2808 VRB05KT QNH2981INS AUTOMATED SENSOR METWATCH 2715 TIL 2815 TX22/2723Z TN10/2813Z COR 1545